Time;durP1;ratioP1;P1;durP2;ratioP2;P2;SDS_P1;SDS_P2;PMS_P1;PMS_P2;Temp;Humidity;BMP_temperature;BMP_pressure;BME280_temperature;BME280_humidity;BME280_pressure;Samples;Min_cycle;Max_cycle;Signal;HPM_P1;HPM_P2
2022/06/17 00:02:41;;;;;;;9.13;3.55;;;17.80;99.90;;;;;;5002858;28;20364;-79
2022/06/17 00:05:30;;;;;;;7.05;3.53;;;17.60;99.90;;;;;;4996636;28;20260;-77
2022/06/17 00:08:21;;;;;;;6.53;3.65;;;17.70;99.90;;;;;;4997792;28;20261;-78
2022/06/17 00:11:14;;;;;;;4.80;3.53;;;17.70;99.90;;;;;;5009051;28;20221;-78
2022/06/17 00:14:03;;;;;;;5.90;3.22;;;17.70;99.90;;;;;;4996714;28;20227;-78
2022/06/17 00:16:55;;;;;;;5.10;3.25;;;17.50;99.90;;;;;;4985244;28;20218;-78
2022/06/17 00:19:43;;;;;;;4.40;2.95;;;17.60;99.90;;;;;;5000458;28;20245;-77
2022/06/17 00:22:32;;;;;;;3.33;3.03;;;17.50;99.90;;;;;;5003563;28;20347;-75
2022/06/17 00:25:26;;;;;;;5.60;3.50;;;17.50;99.90;;;;;;4996861;28;20249;-77
2022/06/17 00:28:16;;;;;;;6.75;3.20;;;17.50;99.90;;;;;;4999178;28;20820;-78
2022/06/17 00:31:06;;;;;;;5.80;3.13;;;17.40;99.90;;;;;;4979258;28;20214;-77
2022/06/17 00:33:56;;;;;;;4.57;2.83;;;17.30;99.90;;;;;;4983867;28;20218;-77
2022/06/17 00:36:46;;;;;;;3.95;2.40;;;17.20;99.90;;;;;;4996817;28;20226;-77
2022/06/17 00:39:36;;;;;;;4.15;2.20;;;17.00;99.90;;;;;;4999820;28;20323;-77
2022/06/17 00:42:30;;;;;;;3.85;2.38;;;17.20;99.90;;;;;;4999742;28;20226;-77
2022/06/17 00:45:27;;;;;;;5.35;2.60;;;17.00;99.90;;;;;;4983195;28;20535;-77
2022/06/17 00:48:22;;;;;;;6.30;2.20;;;17.10;99.90;;;;;;4995138;28;20222;-77
2022/06/17 00:51:17;;;;;;;4.30;2.50;;;17.10;99.90;;;;;;4983062;28;20368;-77
2022/06/17 00:54:15;;;;;;;4.00;2.40;;;17.00;99.90;;;;;;4983882;28;20218;-76
2022/06/17 00:57:18;;;;;;;5.07;2.10;;;16.90;99.90;;;;;;5000699;28;20221;-76
2022/06/17 01:00:15;;;;;;;3.85;2.50;;;16.80;99.90;;;;;;4985488;28;20748;-76
2022/06/17 01:03:09;;;;;;;2.40;2.13;;;16.90;99.90;;;;;;4983545;28;20787;-76
2022/06/17 01:06:04;;;;;;;3.28;2.20;;;16.90;99.90;;;;;;4996341;28;20791;-77
2022/06/17 01:12:08;;;;;;;3.70;2.03;;;16.80;99.90;;;;;;5000712;28;20226;-77
2022/06/17 01:14:58;;;;;;;6.47;2.22;;;16.80;99.90;;;;;;4989302;28;20237;-76
2022/06/17 01:17:50;;;;;;;4.75;2.17;;;16.80;99.90;;;;;;4974936;28;20335;-76
2022/06/17 01:20:42;;;;;;;4.30;2.40;;;16.60;99.90;;;;;;5008671;28;20218;-76
2022/06/17 01:23:32;;;;;;;7.22;1.80;;;16.60;99.90;;;;;;4973465;28;20219;-75
2022/06/17 01:26:21;;;;;;;4.07;2.15;;;16.60;99.90;;;;;;4998766;28;20624;-76
2022/06/17 01:29:13;;;;;;;4.53;1.80;;;16.50;99.90;;;;;;5011431;28;20223;-77
2022/06/17 01:32:04;;;;;;;2.88;1.63;;;16.60;99.90;;;;;;5010348;28;20221;-77
2022/06/17 01:34:53;;;;;;;3.60;1.85;;;16.40;99.90;;;;;;4997953;28;20214;-74
2022/06/17 01:37:42;;;;;;;3.55;1.77;;;16.30;99.90;;;;;;4994497;28;20234;-74
2022/06/17 01:40:32;;;;;;;3.75;2.00;;;16.50;99.90;;;;;;5012938;28;20226;-77
2022/06/17 01:43:22;;;;;;;1.83;1.65;;;16.30;99.90;;;;;;4997936;28;21290;-76
2022/06/17 01:46:15;;;;;;;3.95;1.92;;;16.20;99.90;;;;;;5010868;28;20307;-76
2022/06/17 01:49:06;;;;;;;2.88;2.00;;;16.40;99.90;;;;;;4998914;28;21260;-76
2022/06/17 01:51:59;;;;;;;5.32;1.90;;;16.50;99.90;;;;;;5008247;28;20717;-77
2022/06/17 01:54:52;;;;;;;4.38;2.10;;;16.30;99.90;;;;;;5027172;28;20218;-76
2022/06/17 01:57:51;;;;;;;2.65;1.80;;;16.30;99.90;;;;;;4998771;28;20253;-76
2022/06/17 02:00:42;;;;;;;5.18;1.52;;;16.30;99.90;;;;;;5009972;28;20230;-76
2022/06/17 02:03:36;;;;;;;2.95;1.50;;;16.20;99.90;;;;;;4997182;28;20356;-76
2022/06/17 02:06:31;;;;;;;2.40;1.48;;;16.20;99.90;;;;;;5011832;28;20308;-75
2022/06/17 02:09:20;;;;;;;1.90;1.60;;;16.20;99.90;;;;;;4994934;28;20229;-75
2022/06/17 02:12:11;;;;;;;3.10;1.50;;;16.20;99.90;;;;;;5011311;28;20601;-76
2022/06/17 02:15:06;;;;;;;3.97;1.80;;;16.20;99.90;;;;;;5004904;28;20242;-74
2022/06/17 02:18:10;;;;;;;3.70;1.45;;;16.20;99.90;;;;;;4998652;28;20768;-76
2022/06/17 02:21:11;;;;;;;3.22;1.70;;;16.20;99.90;;;;;;4997389;28;20942;-76
2022/06/17 02:24:01;;;;;;;3.88;1.42;;;16.20;99.90;;;;;;4998978;28;20214;-76
2022/06/17 02:26:50;;;;;;;3.50;1.77;;;16.20;99.90;;;;;;4999617;28;20237;-78
2022/06/17 02:29:42;;;;;;;2.90;1.58;;;16.20;99.90;;;;;;4960483;28;20361;-77
2022/06/17 02:32:33;;;;;;;3.00;1.70;;;16.20;99.90;;;;;;4996867;28;20234;-79
2022/06/17 02:35:35;;;;;;;5.32;1.90;;;16.20;99.90;;;;;;4998100;28;20223;-79
2022/06/17 02:38:28;;;;;;;2.83;1.63;;;16.20;99.90;;;;;;5010835;28;20383;-78
2022/06/17 02:41:21;;;;;;;1.48;1.33;;;16.20;99.90;;;;;;5004433;28;20222;-78
2022/06/17 02:44:16;;;;;;;4.07;1.92;;;16.20;99.90;;;;;;4985416;28;20229;-78
2022/06/17 02:47:07;;;;;;;3.78;1.42;;;16.30;99.90;;;;;;4982407;28;20228;-78
2022/06/17 02:49:58;;;;;;;2.65;1.50;;;16.30;99.90;;;;;;5015714;28;20237;-77
2022/06/17 02:52:48;;;;;;;2.08;1.60;;;16.30;99.90;;;;;;5013110;28;21144;-76
2022/06/17 02:55:40;;;;;;;2.42;1.40;;;16.30;99.90;;;;;;4998192;28;20892;-76
2022/06/17 02:58:38;;;;;;;5.95;1.80;;;16.30;99.90;;;;;;4999773;28;20218;-75
2022/06/17 03:01:28;;;;;;;1.60;1.30;;;16.30;99.90;;;;;;5020128;28;20736;-76
2022/06/17 03:04:32;;;;;;;3.15;1.50;;;16.40;99.90;;;;;;4997985;28;20241;-76
2022/06/17 03:07:31;;;;;;;1.73;1.27;;;16.30;99.90;;;;;;4995804;28;20225;-76
2022/06/17 03:10:35;;;;;;;4.13;1.50;;;16.40;99.90;;;;;;5010732;28;20233;-77
2022/06/17 03:13:29;;;;;;;5.10;1.70;;;16.40;99.90;;;;;;4999993;28;20419;-77
2022/06/17 03:16:20;;;;;;;3.53;1.60;;;16.30;99.90;;;;;;5028685;28;20268;-77
2022/06/17 03:19:09;;;;;;;2.83;1.52;;;16.30;99.90;;;;;;5019001;28;20229;-77
2022/06/17 03:21:59;;;;;;;3.13;1.77;;;16.40;99.90;;;;;;5001189;28;20236;-77
2022/06/17 03:24:54;;;;;;;2.72;1.55;;;16.50;99.90;;;;;;5000308;28;20301;-78
2022/06/17 03:27:48;;;;;;;2.15;1.30;;;16.40;99.90;;;;;;5001077;28;20236;-77
2022/06/17 03:30:41;;;;;;;4.15;1.50;;;16.50;99.90;;;;;;5024154;28;20233;-77
2022/06/17 03:33:42;;;;;;;1.95;1.60;;;16.60;99.90;;;;;;5032082;28;20229;-77
2022/06/17 03:36:34;;;;;;;3.25;1.75;;;16.50;99.90;;;;;;5008617;28;20213;-79
2022/06/17 03:39:40;;;;;;;2.78;1.50;;;16.60;99.90;;;;;;4999208;28;20233;-76
2022/06/17 03:42:35;;;;;;;4.60;1.60;;;16.70;99.90;;;;;;5003053;28;20229;-75
2022/06/17 03:45:28;;;;;;;2.83;1.52;;;16.70;99.90;;;;;;5016040;28;20746;-75
2022/06/17 03:48:29;;;;;;;3.50;1.63;;;16.60;99.90;;;;;;5000939;28;21169;-74
2022/06/17 03:51:21;;;;;;;4.10;1.80;;;16.50;99.90;;;;;;5028113;28;20217;-74
2022/06/17 03:54:13;;;;;;;4.40;1.60;;;16.50;99.90;;;;;;5017157;28;20224;-75
2022/06/17 03:57:02;;;;;;;5.13;1.60;;;16.50;99.90;;;;;;5004152;28;20240;-74
2022/06/17 03:59:54;;;;;;;2.42;1.85;;;16.60;99.90;;;;;;5004681;28;20221;-75
2022/06/17 04:02:43;;;;;;;3.92;1.60;;;16.80;99.90;;;;;;5024861;28;20276;-74
2022/06/17 04:05:33;;;;;;;5.53;2.22;;;16.90;99.90;;;;;;5004685;28;20218;-76
2022/06/17 04:08:23;;;;;;;3.35;1.50;;;16.90;99.90;;;;;;5005942;28;20248;-75
2022/06/17 04:11:12;;;;;;;6.32;1.60;;;16.90;99.90;;;;;;5020606;28;20225;-73
2022/06/17 04:14:06;;;;;;;7.35;1.98;;;17.10;99.90;;;;;;5019326;28;22146;-75
2022/06/17 04:17:01;;;;;;;7.10;2.00;;;17.00;99.90;;;;;;5002300;28;20299;-74
2022/06/17 04:19:58;;;;;;;7.45;1.83;;;17.10;99.90;;;;;;5018876;28;20225;-75
2022/06/17 04:22:56;;;;;;;5.53;1.77;;;17.30;99.90;;;;;;5017088;28;20263;-78
2022/06/17 04:26:27;;;;;;;3.50;1.70;;;17.30;99.90;;;;;;4968636;28;20230;-78
2022/06/17 04:29:21;;;;;;;4.60;1.98;;;17.40;99.90;;;;;;4985236;28;20223;-79
2022/06/17 04:32:19;;;;;;;4.38;1.55;;;17.40;99.90;;;;;;5005906;28;20228;-78
2022/06/17 04:35:13;;;;;;;3.17;1.77;;;17.40;99.90;;;;;;5002325;28;20221;-78
2022/06/17 04:38:03;;;;;;;3.38;1.50;;;17.40;99.90;;;;;;5017933;28;20298;-77
2022/06/17 04:41:07;;;;;;;3.53;1.70;;;17.40;99.90;;;;;;5004382;28;20611;-77
2022/06/17 04:44:05;;;;;;;5.65;1.48;;;17.50;99.90;;;;;;5005643;28;20267;-78
2022/06/17 04:46:59;;;;;;;5.85;1.80;;;17.50;99.90;;;;;;5029510;28;20310;-78
2022/06/17 04:50:09;;;;;;;3.60;1.80;;;17.70;99.90;;;;;;5015852;28;20224;-76
2022/06/17 04:53:01;;;;;;;1.50;1.40;;;17.80;99.90;;;;;;5017350;28;20240;-76
2022/06/17 04:56:06;;;;;;;3.05;1.38;;;18.00;99.90;;;;;;5001996;28;20297;-76
2022/06/17 04:59:17;;;;;;;4.30;1.65;;;17.80;99.90;;;;;;5016232;28;20712;-76
2022/06/17 05:02:11;;;;;;;2.55;1.50;;;17.90;99.90;;;;;;5012925;28;20782;-76
2022/06/17 05:05:24;;;;;;;8.13;1.70;;;18.00;99.90;;;;;;5003398;28;21001;-77
2022/06/17 05:08:18;;;;;;;2.50;1.60;;;18.00;99.90;;;;;;5016037;28;20541;-78
2022/06/17 05:11:14;;;;;;;4.22;1.52;;;18.00;99.90;;;;;;5017462;28;20221;-77
2022/06/17 05:14:13;;;;;;;3.22;1.70;;;18.10;99.90;;;;;;5018155;28;20228;-78
2022/06/17 05:17:02;;;;;;;2.92;1.60;;;18.00;99.90;;;;;;5016217;28;22933;-76
2022/06/17 05:19:53;;;;;;;2.55;1.65;;;18.10;99.90;;;;;;5004582;28;20217;-77
2022/06/17 05:22:47;;;;;;;4.57;1.80;;;18.20;99.90;;;;;;5025458;28;20225;-77
2022/06/17 05:25:37;;;;;;;4.30;1.83;;;18.30;99.90;;;;;;5019532;28;20229;-77
2022/06/17 05:28:27;;;;;;;3.03;1.83;;;18.50;99.90;;;;;;5014846;28;20722;-77
2022/06/17 05:31:25;;;;;;;5.45;2.20;;;18.60;99.90;;;;;;5020444;28;20225;-76
2022/06/17 05:34:24;;;;;;;3.53;1.50;;;18.60;99.90;;;;;;5020535;28;20233;-75
2022/06/17 05:37:13;;;;;;;4.22;1.48;;;18.60;99.90;;;;;;5022911;28;20558;-77
2022/06/17 05:40:08;;;;;;;3.95;1.63;;;18.60;99.90;;;;;;5021399;28;20229;-76
2022/06/17 05:42:58;;;;;;;3.42;1.60;;;18.60;99.90;;;;;;4995083;28;21094;-78
2022/06/17 05:45:52;;;;;;;2.53;1.40;;;18.80;99.90;;;;;;5038094;28;20368;-77
2022/06/17 05:48:52;;;;;;;5.05;1.67;;;18.80;99.90;;;;;;5008528;28;20233;-78
2022/06/17 05:51:55;;;;;;;3.13;1.70;;;19.00;99.90;;;;;;5009534;28;20283;-78
2022/06/17 05:55:06;;;;;;;5.68;1.90;;;19.10;99.90;;;;;;5023604;28;20220;-78
2022/06/17 05:57:55;;;;;;;7.70;1.63;;;19.20;99.90;;;;;;5017791;28;20293;-76
2022/06/17 06:00:43;;;;;;;2.45;1.70;;;19.30;99.90;;;;;;5022591;28;20241;-76
2022/06/17 06:03:32;;;;;;;3.38;1.70;;;19.40;99.90;;;;;;5002177;28;20553;-78
2022/06/17 06:06:26;;;;;;;5.10;1.50;;;19.50;99.90;;;;;;5034931;28;20308;-78
2022/06/17 06:09:18;;;;;;;3.05;1.48;;;19.50;99.90;;;;;;5021543;28;20691;-79
2022/06/17 06:12:10;;;;;;;2.67;1.50;;;19.50;99.90;;;;;;5018463;28;20539;-78
2022/06/17 06:14:59;;;;;;;4.82;1.58;;;19.60;99.90;;;;;;5030751;28;21166;-77
2022/06/17 06:17:52;;;;;;;3.97;1.50;;;19.70;99.90;;;;;;5002894;28;20221;-76
2022/06/17 06:20:41;;;;;;;4.82;1.40;;;19.70;99.90;;;;;;5016039;28;20271;-76
2022/06/17 06:23:29;;;;;;;2.25;1.25;;;20.70;99.90;;;;;;5016952;28;20226;-77
2022/06/17 06:26:21;;;;;;;3.50;1.40;;;21.90;99.90;;;;;;5006809;28;20734;-76
2022/06/17 06:29:18;;;;;;;3.40;1.48;;;22.90;97.10;;;;;;5022262;28;20987;-73
2022/06/17 06:32:10;;;;;;;3.65;1.50;;;22.30;96.90;;;;;;5020613;28;20263;-74
2022/06/17 06:35:06;;;;;;;3.22;1.40;;;21.40;96.20;;;;;;5021060;28;20290;-78
2022/06/17 06:37:54;;;;;;;5.18;1.45;;;21.00;98.00;;;;;;5019377;28;20221;-75
2022/06/17 07:00:26;;;;;;;4.88;1.42;;;21.10;99.90;;;;;;5009583;27;20299;-74
2022/06/17 07:03:18;;;;;;;1.50;1.10;;;21.00;99.90;;;;;;5014772;28;20229;-73
2022/06/17 07:06:06;;;;;;;6.90;1.33;;;21.00;98.00;;;;;;5038685;28;20223;-74
2022/06/17 07:08:55;;;;;;;3.13;1.40;;;21.00;98.00;;;;;;5035884;28;20221;-74
2022/06/17 07:11:44;;;;;;;2.97;1.30;;;21.10;96.70;;;;;;5034272;28;20248;-75
2022/06/17 07:14:32;;;;;;;2.50;1.20;;;21.60;95.60;;;;;;5032161;28;20304;-75
2022/06/17 07:17:22;;;;;;;3.78;1.50;;;22.20;94.50;;;;;;5018840;28;20229;-75
2022/06/17 07:20:12;;;;;;;2.22;1.20;;;21.90;93.40;;;;;;5029367;28;20290;-74
2022/06/17 07:23:00;;;;;;;1.60;1.20;;;21.90;94.60;;;;;;5012885;28;20325;-75
2022/06/17 07:25:49;;;;;;;4.05;1.30;;;22.10;94.20;;;;;;5032104;28;20237;-74
2022/06/17 07:28:44;;;;;;;3.45;1.27;;;22.40;93.00;;;;;;5029015;28;20305;-74
2022/06/17 07:31:37;;;;;;;2.30;1.30;;;22.70;91.30;;;;;;5031486;28;20444;-76
2022/06/17 07:34:27;;;;;;;2.70;1.30;;;22.90;89.00;;;;;;5028765;28;20300;-76
2022/06/17 07:40:22;;;;;;;3.40;1.63;;;23.30;85.20;;;;;;5035424;28;20320;-75
2022/06/17 07:43:10;;;;;;;3.17;1.40;;;24.00;84.80;;;;;;5015972;28;20225;-75
2022/06/17 07:46:00;;;;;;;2.88;1.38;;;24.60;86.40;;;;;;5029934;28;20228;-76
2022/06/17 07:48:49;;;;;;;3.45;1.30;;;24.70;84.20;;;;;;5033254;28;20237;-75
2022/06/17 07:51:43;;;;;;;2.90;1.40;;;25.20;80.90;;;;;;5046870;28;20229;-75
2022/06/17 07:54:35;;;;;;;4.28;1.30;;;25.50;77.60;;;;;;5035965;28;20225;-75
2022/06/17 07:57:24;;;;;;;3.25;1.27;;;25.50;76.10;;;;;;5043308;28;20791;-74
2022/06/17 08:00:20;;;;;;;2.60;1.50;;;25.90;74.60;;;;;;5030170;28;20238;-76
2022/06/17 08:03:10;;;;;;;2.90;1.33;;;26.50;73.70;;;;;;5032768;28;20220;-75
2022/06/17 08:06:02;;;;;;;1.55;1.38;;;25.80;73.50;;;;;;5032009;28;20217;-76
2022/06/17 08:08:52;;;;;;;4.35;1.70;;;26.00;75.40;;;;;;5034770;28;20232;-73
2022/06/17 08:11:41;;;;;;;4.13;1.40;;;26.60;71.00;;;;;;5021701;28;20374;-76
2022/06/17 08:14:29;;;;;;;3.58;1.38;;;26.40;72.20;;;;;;5018398;28;20230;-76
2022/06/17 08:17:18;;;;;;;5.60;1.45;;;26.30;70.90;;;;;;5018843;28;20218;-76
2022/06/17 08:20:13;;;;;;;4.85;1.80;;;26.00;75.90;;;;;;5022860;28;20239;-77
2022/06/17 08:23:02;;;;;;;4.95;1.65;;;25.40;76.50;;;;;;5016308;28;20229;-73
2022/06/17 08:25:54;;;;;;;3.83;1.70;;;24.30;78.10;;;;;;5020165;28;20251;-77
2022/06/17 08:28:43;;;;;;;18.15;2.65;;;25.50;76.20;;;;;;5017966;28;20300;-74
2022/06/17 08:31:32;;;;;;;3.15;1.67;;;26.60;71.70;;;;;;5018373;28;20297;-74
2022/06/17 08:34:20;;;;;;;2.22;1.40;;;27.20;70.90;;;;;;5031531;28;20222;-73
2022/06/17 08:37:09;;;;;;;3.90;1.48;;;27.60;67.00;;;;;;5015350;28;20230;-75
2022/06/17 08:40:02;;;;;;;4.38;1.50;;;28.30;67.50;;;;;;5017742;28;20305;-74
2022/06/17 08:43:03;;;;;;;3.95;1.40;;;28.80;66.80;;;;;;5017368;28;20220;-75
2022/06/17 08:46:08;;;;;;;4.72;1.60;;;27.50;66.60;;;;;;5031598;28;20218;-73
2022/06/17 08:49:14;;;;;;;3.38;1.55;;;27.30;69.90;;;;;;5029477;28;20229;-77
2022/06/17 08:52:20;;;;;;;3.67;1.55;;;26.80;68.00;;;;;;5016281;28;22036;-74
2022/06/17 08:55:18;;;;;;;3.63;1.48;;;28.00;66.70;;;;;;5019894;28;20232;-74
2022/06/17 08:58:18;;;;;;;4.93;1.50;;;29.30;64.40;;;;;;5020660;28;20228;-76
2022/06/17 09:01:17;;;;;;;2.88;1.70;;;28.50;64.60;;;;;;5040171;28;20325;-73
2022/06/17 09:04:22;;;;;;;4.60;1.55;;;28.50;64.00;;;;;;5037061;28;20261;-74
2022/06/17 09:07:20;;;;;;;3.13;1.50;;;28.90;64.80;;;;;;5039179;28;20224;-74
2022/06/17 09:10:27;;;;;;;2.53;1.35;;;27.90;66.20;;;;;;5041609;28;20239;-75
2022/06/17 09:13:36;;;;;;;1.90;1.48;;;28.90;64.90;;;;;;5041578;28;20316;-74
2022/06/17 09:16:34;;;;;;;6.60;1.63;;;29.90;61.40;;;;;;5025472;28;20300;-75
2022/06/17 09:19:27;;;;;;;5.72;1.70;;;30.20;61.70;;;;;;5037350;28;20224;-74
2022/06/17 09:22:20;;;;;;;3.28;1.40;;;30.10;61.80;;;;;;5032998;28;20216;-75
2022/06/17 09:25:12;;;;;;;3.60;1.55;;;29.90;60.10;;;;;;5039938;28;20248;-74
2022/06/17 09:28:03;;;;;;;1.83;1.40;;;28.60;62.50;;;;;;5041269;28;20221;-76
2022/06/17 09:31:04;;;;;;;2.72;1.60;;;31.50;59.80;;;;;;5026123;28;20308;-75
2022/06/17 09:34:00;;;;;;;1.77;1.38;;;33.20;55.10;;;;;;5042049;28;20216;-74
2022/06/17 09:36:52;;;;;;;2.20;1.58;;;31.90;55.40;;;;;;5042485;28;20227;-75
2022/06/17 09:39:47;;;;;;;3.72;1.52;;;30.10;58.80;;;;;;5037690;28;20228;-75
2022/06/17 09:42:41;;;;;;;2.75;1.65;;;32.50;55.40;;;;;;5039509;28;20227;-75
2022/06/17 09:45:39;;;;;;;3.88;2.55;;;33.90;53.80;;;;;;5040277;28;20220;-73
2022/06/17 09:48:36;;;;;;;3.38;1.50;;;31.90;55.70;;;;;;5050691;28;20584;-72
2022/06/17 09:51:32;;;;;;;7.28;1.90;;;30.30;56.90;;;;;;5042058;28;20316;-74
2022/06/17 09:54:26;;;;;;;8.27;1.40;;;30.30;59.10;;;;;;5023593;28;20310;-74
2022/06/17 09:57:21;;;;;;;1.75;1.50;;;29.50;59.00;;;;;;5041099;28;20231;-74
2022/06/17 10:00:13;;;;;;;5.40;3.00;;;32.00;57.40;;;;;;5033591;28;20318;-75
2022/06/17 10:03:16;;;;;;;2.63;1.70;;;31.40;54.80;;;;;;5035936;28;20216;-73
2022/06/17 10:06:16;;;;;;;3.25;1.52;;;29.60;58.50;;;;;;5039647;28;20231;-74
2022/06/17 10:09:23;;;;;;;2.63;1.45;;;28.50;58.60;;;;;;5038159;28;20220;-76
2022/06/17 10:12:19;;;;;;;2.20;1.48;;;27.80;61.30;;;;;;5037697;28;20247;-74
2022/06/17 10:15:23;;;;;;;1.95;1.30;;;30.40;59.20;;;;;;5039597;28;20227;-75
2022/06/17 10:18:33;;;;;;;6.28;4.72;;;33.50;54.40;;;;;;5034705;28;20916;-75
2022/06/17 10:21:34;;;;;;;2.90;1.25;;;36.70;48.80;;;;;;5036122;28;20587;-75
2022/06/17 10:24:33;;;;;;;1.58;1.35;;;38.20;46.60;;;;;;5036140;28;20231;-77
2022/06/17 10:27:43;;;;;;;2.00;1.40;;;34.20;49.00;;;;;;5035589;28;20602;-75
2022/06/17 10:30:46;;;;;;;4.18;1.55;;;30.40;54.90;;;;;;5018419;28;20251;-78
2022/06/17 10:33:37;;;;;;;2.88;1.50;;;34.40;52.00;;;;;;5035758;28;20307;-74
2022/06/17 10:36:28;;;;;;;3.22;1.20;;;36.50;47.50;;;;;;5035690;28;20226;-74
2022/06/17 10:39:22;;;;;;;2.47;1.40;;;37.70;44.20;;;;;;5032077;28;20338;-77
2022/06/17 10:42:15;;;;;;;2.20;1.55;;;32.40;48.40;;;;;;5038183;28;20276;-78
2022/06/17 10:45:10;;;;;;;11.88;1.42;;;32.10;54.60;;;;;;5031853;28;20249;-68
2022/06/17 10:48:10;;;;;;;3.97;1.40;;;32.30;51.00;;;;;;5023966;28;20207;-67
2022/06/17 15:39:15;;;;;;;4.95;1.30;;;24.40;70.90;;;;;;4986536;28;20951;-65
2022/06/17 15:42:06;;;;;;;2.17;1.20;;;24.10;71.50;;;;;;5012194;28;20594;-67
2022/06/17 15:44:58;;;;;;;2.35;1.25;;;24.20;71.70;;;;;;5001719;28;20284;-65
2022/06/17 15:47:56;;;;;;;2.20;1.50;;;24.20;71.00;;;;;;5002659;28;20721;-64
2022/06/17 15:50:48;;;;;;;2.38;1.50;;;24.10;71.50;;;;;;5012161;28;20680;-65
2022/06/17 15:53:41;;;;;;;1.73;1.08;;;24.00;70.90;;;;;;5014515;28;20233;-67
2022/06/17 15:56:36;;;;;;;2.53;1.52;;;24.00;71.50;;;;;;5012697;28;20712;-67
2022/06/17 15:59:27;;;;;;;2.03;1.58;;;23.40;71.30;;;;;;5011406;28;20234;-67
2022/06/17 16:02:20;;;;;;;7.00;1.75;;;23.40;72.50;;;;;;5007966;28;20331;-67
2022/06/17 16:05:15;;;;;;;2.95;1.42;;;23.20;72.70;;;;;;5009351;28;20225;-69
2022/06/17 16:08:11;;;;;;;2.38;1.42;;;23.40;73.70;;;;;;5008792;28;20225;-68
2022/06/17 16:11:23;;;;;;;1.50;1.30;;;23.10;74.00;;;;;;5011613;28;20712;-66
2022/06/17 16:14:29;;;;;;;2.58;1.48;;;23.00;74.80;;;;;;5012096;28;20229;-66
2022/06/17 16:17:26;;;;;;;24.13;2.40;;;23.10;74.80;;;;;;5013284;28;20236;-68
2022/06/17 16:20:35;;;;;;;3.45;1.45;;;23.00;74.10;;;;;;5013217;28;20316;-68
2022/06/17 16:23:36;;;;;;;3.13;1.50;;;23.10;74.40;;;;;;5010982;28;20234;-67
2022/06/17 16:26:25;;;;;;;1.90;1.48;;;23.20;73.80;;;;;;5012868;28;20235;-64
2022/06/17 16:29:15;;;;;;;4.47;1.38;;;23.30;73.90;;;;;;5014574;28;20701;-67
2022/06/17 16:32:08;;;;;;;2.38;1.40;;;23.20;73.40;;;;;;5018826;28;20611;-66
2022/06/17 16:34:58;;;;;;;2.22;1.30;;;23.10;73.90;;;;;;5019261;28;20242;-68
2022/06/17 16:37:53;;;;;;;2.50;1.75;;;22.90;74.00;;;;;;5012066;28;20229;-66
2022/06/17 16:44:26;;;;;;;1.98;1.40;;;22.80;75.40;;;;;;5014204;28;20308;-67
2022/06/17 16:47:16;;;;;;;3.88;1.80;;;22.70;75.10;;;;;;5008515;28;20222;-66
2022/06/17 16:50:07;;;;;;;6.15;1.83;;;22.70;75.90;;;;;;5002962;28;20803;-68
2022/06/17 16:52:59;;;;;;;3.10;1.60;;;22.60;75.70;;;;;;4996929;28;20337;-67
2022/06/17 16:55:48;;;;;;;4.22;1.60;;;22.50;75.70;;;;;;4997983;28;20226;-66
2022/06/17 16:58:37;;;;;;;5.88;1.50;;;22.50;76.00;;;;;;5003460;28;20264;-68
2022/06/17 17:01:27;;;;;;;3.70;1.75;;;22.50;76.00;;;;;;5004305;28;20339;-66
2022/06/17 17:04:17;;;;;;;3.00;1.40;;;22.40;75.70;;;;;;5012016;28;20222;-68
2022/06/17 17:07:06;;;;;;;3.63;1.70;;;22.50;75.80;;;;;;5001780;28;20214;-64
2022/06/17 17:09:57;;;;;;;8.68;3.83;;;22.50;75.50;;;;;;5000286;28;20697;-67
2022/06/17 17:12:48;;;;;;;2.45;1.60;;;22.50;75.50;;;;;;4997139;28;20232;-67
2022/06/17 17:15:36;;;;;;;6.07;2.65;;;22.50;76.00;;;;;;4999172;28;20218;-68
2022/06/17 17:18:25;;;;;;;3.05;1.75;;;22.50;75.90;;;;;;5004653;28;20760;-65
2022/06/17 17:21:26;;;;;;;2.25;1.65;;;22.60;76.40;;;;;;5004044;28;20731;-68
2022/06/17 17:24:17;;;;;;;1.75;1.50;;;22.40;76.60;;;;;;5012994;28;20225;-67
2022/06/17 17:27:06;;;;;;;3.15;1.60;;;22.20;77.20;;;;;;4998273;28;20218;-67
2022/06/17 17:29:54;;;;;;;2.60;1.80;;;22.10;77.90;;;;;;4999298;28;20344;-66
2022/06/17 17:32:43;;;;;;;5.25;1.80;;;22.20;78.90;;;;;;4997230;28;20226;-65
2022/06/17 17:35:32;;;;;;;3.10;1.40;;;22.00;79.60;;;;;;5001190;28;20252;-66
2022/06/17 17:38:26;;;;;;;2.90;1.52;;;22.00;80.40;;;;;;4997084;28;20222;-67
2022/06/17 17:41:28;;;;;;;3.25;1.70;;;22.20;80.70;;;;;;4997668;28;20230;-69
2022/06/17 17:44:20;;;;;;;2.58;1.80;;;22.30;81.00;;;;;;5008875;28;20230;-67
2022/06/17 17:47:29;;;;;;;3.35;1.58;;;22.50;80.90;;;;;;4994399;28;20218;-67
2022/06/17 17:50:20;;;;;;;5.82;1.77;;;22.30;78.90;;;;;;5001256;28;20218;-66
2022/06/17 17:53:09;;;;;;;3.00;1.80;;;22.40;80.00;;;;;;4995829;28;20240;-65
2022/06/17 17:55:59;;;;;;;5.15;1.80;;;22.50;80.70;;;;;;5001163;28;20816;-65
2022/06/17 17:58:48;;;;;;;2.42;1.70;;;22.50;81.00;;;;;;4992324;28;20225;-66
2022/06/17 18:01:40;;;;;;;4.78;1.60;;;22.40;80.80;;;;;;4994906;28;20222;-62
2022/06/17 18:04:30;;;;;;;1.98;1.50;;;22.40;81.00;;;;;;5008418;28;20692;-65
2022/06/17 18:07:18;;;;;;;3.35;1.85;;;22.40;81.80;;;;;;4997763;28;20632;-65
2022/06/17 18:10:10;;;;;;;3.58;1.90;;;22.40;81.70;;;;;;4999846;28;20214;-67
2022/06/17 18:13:04;;;;;;;3.70;1.83;;;22.30;81.90;;;;;;5003274;28;20673;-66
2022/06/17 18:15:52;;;;;;;2.83;1.73;;;22.20;83.70;;;;;;4996933;28;20215;-65
2022/06/17 18:18:42;;;;;;;2.60;1.70;;;22.10;84.10;;;;;;5001890;28;20223;-66
2022/06/17 18:21:33;;;;;;;3.10;1.55;;;22.10;84.70;;;;;;5000381;28;20304;-66
2022/06/17 18:24:22;;;;;;;3.53;2.03;;;22.00;85.40;;;;;;4994453;28;20222;-66
2022/06/17 18:27:13;;;;;;;3.63;1.80;;;22.00;86.40;;;;;;4996170;28;20237;-67
2022/06/17 18:30:05;;;;;;;6.63;1.88;;;21.90;88.20;;;;;;5006100;28;20258;-67
2022/06/17 18:32:58;;;;;;;3.55;1.92;;;22.00;86.90;;;;;;4992183;28;20700;-66
2022/06/17 18:35:52;;;;;;;3.20;1.63;;;21.90;83.60;;;;;;5000777;28;20329;-66
2022/06/17 18:38:42;;;;;;;4.38;1.60;;;21.90;82.30;;;;;;4997699;28;20218;-66
2022/06/17 18:44:36;;;;;;;4.07;1.42;;;21.80;82.40;;;;;;4980755;28;20245;-65
2022/06/17 18:47:27;;;;;;;3.10;1.70;;;21.80;83.30;;;;;;4973527;28;20240;-65
2022/06/17 18:50:23;;;;;;;2.38;1.73;;;21.80;83.00;;;;;;4971586;28;20219;-66
2022/06/17 18:53:13;;;;;;;4.40;1.92;;;21.70;83.70;;;;;;4970967;28;20231;-64
2022/06/17 18:56:04;;;;;;;2.58;1.60;;;21.70;84.20;;;;;;4973634;28;20235;-64
2022/06/17 18:58:53;;;;;;;3.67;2.00;;;21.60;84.20;;;;;;5011946;28;20249;-64
2022/06/17 19:01:44;;;;;;;3.35;1.67;;;21.50;86.90;;;;;;4999937;28;20285;-65
2022/06/17 19:04:34;;;;;;;3.80;1.55;;;21.40;86.40;;;;;;4994954;28;20237;-65
2022/06/17 19:07:24;;;;;;;4.43;1.58;;;21.30;88.60;;;;;;4994301;28;20222;-65
2022/06/17 19:19:42;;;;;;;2.53;2.33;;;21.10;90.70;;;;;;5014112;28;20237;-65
2022/06/17 19:22:33;;;;;;;2.78;1.90;;;21.00;91.20;;;;;;4993783;28;20647;-65
2022/06/17 19:25:23;;;;;;;3.15;2.00;;;20.90;91.90;;;;;;4996866;28;20233;-65
2022/06/17 19:28:14;;;;;;;6.38;3.05;;;20.90;92.20;;;;;;4993176;28;20222;-66
2022/06/17 19:31:05;;;;;;;3.60;2.75;;;20.80;93.80;;;;;;4993378;28;20218;-64
2022/06/17 19:33:54;;;;;;;4.72;2.67;;;20.70;94.80;;;;;;4996627;28;20670;-66
2022/06/17 19:36:45;;;;;;;4.28;2.33;;;20.60;96.00;;;;;;4994309;28;20276;-67
2022/06/17 19:39:33;;;;;;;5.68;3.00;;;20.60;97.50;;;;;;5005548;28;20759;-64
2022/06/17 19:42:22;;;;;;;8.57;3.53;;;20.60;99.20;;;;;;4991532;28;20309;-65
2022/06/17 19:45:11;;;;;;;4.78;3.60;;;20.50;99.90;;;;;;5000193;28;20222;-66
2022/06/17 19:48:00;;;;;;;5.13;3.60;;;20.50;99.90;;;;;;4992499;28;20303;-65
2022/06/17 19:50:48;;;;;;;5.63;3.45;;;20.50;99.90;;;;;;4994271;28;20211;-65
2022/06/17 19:53:38;;;;;;;4.35;3.47;;;20.40;99.90;;;;;;4994195;28;20229;-64
2022/06/17 19:56:30;;;;;;;5.13;4.10;;;20.40;99.90;;;;;;4996030;28;20308;-65
2022/06/17 19:59:20;;;;;;;7.97;4.38;;;20.30;99.90;;;;;;4991826;28;20571;-66
2022/06/17 20:02:18;;;;;;;9.32;5.10;;;20.30;99.90;;;;;;4989033;28;20214;-66
2022/06/17 20:05:18;;;;;;;6.07;3.72;;;20.30;99.90;;;;;;5002925;28;20229;-66
2022/06/17 20:08:07;;;;;;;6.78;3.78;;;20.20;99.90;;;;;;4995606;28;20222;-65
2022/06/17 20:10:57;;;;;;;7.45;4.30;;;20.10;99.90;;;;;;4994785;28;20862;-64
2022/06/17 20:13:46;;;;;;;9.00;5.90;;;20.10;99.90;;;;;;4990716;28;20229;-65
2022/06/17 20:16:35;;;;;;;7.70;4.63;;;20.10;99.90;;;;;;5003003;28;20804;-63
2022/06/17 20:19:25;;;;;;;9.10;6.03;;;20.00;99.90;;;;;;4987095;28;20495;-67
2022/06/17 20:22:16;;;;;;;12.10;5.95;;;19.90;99.90;;;;;;4990210;28;20222;-69
2022/06/17 20:25:06;;;;;;;11.07;5.20;;;19.90;99.90;;;;;;4993635;28;20739;-66
2022/06/17 20:27:56;;;;;;;6.63;4.53;;;19.80;99.90;;;;;;5002560;28;20713;-67
2022/06/17 20:30:44;;;;;;;6.28;3.47;;;19.80;99.90;;;;;;5007320;28;20234;-67
2022/06/17 20:33:33;;;;;;;6.35;3.38;;;19.80;99.90;;;;;;4997860;28;20986;-67